sensor_id;sensor_type;location;lat;lon;timestamp;P1;durP1;ratioP1;P2;durP2;ratioP2
68432;SDS011;55412;51.350;17.056;2024-01-11T00:00:14;109.13;;;35.28;;
68432;SDS011;55412;51.350;17.056;2024-01-11T00:02:41;103.30;;;36.30;;
68432;SDS011;55412;51.350;17.056;2024-01-11T00:05:06;89.57;;;32.50;;
68432;SDS011;55412;51.350;17.056;2024-01-11T00:07:33;99.05;;;35.35;;
68432;SDS011;55412;51.350;17.056;2024-01-11T00:10:00;110.77;;;38.50;;
68432;SDS011;55412;51.350;17.056;2024-01-11T00:12:26;118.68;;;39.58;;
68432;SDS011;55412;51.350;17.056;2024-01-11T00:14:52;123.63;;;43.38;;
68432;SDS011;55412;51.350;17.056;2024-01-11T00:17:18;127.60;;;42.13;;
68432;SDS011;55412;51.350;17.056;2024-01-11T00:19:43;111.10;;;39.60;;
68432;SDS011;55412;51.350;17.056;2024-01-11T00:22:09;148.23;;;49.85;;
68432;SDS011;55412;51.350;17.056;2024-01-11T00:24:35;139.30;;;46.55;;
68432;SDS011;55412;51.350;17.056;2024-01-11T00:27:01;124.30;;;43.73;;
68432;SDS011;55412;51.350;17.056;2024-01-11T00:29:26;131.57;;;44.55;;
68432;SDS011;55412;51.350;17.056;2024-01-11T00:31:53;163.27;;;53.17;;
68432;SDS011;55412;51.350;17.056;2024-01-11T00:34:19;116.00;;;41.55;;
68432;SDS011;55412;51.350;17.056;2024-01-11T00:36:46;121.85;;;41.63;;
68432;SDS011;55412;51.350;17.056;2024-01-11T00:39:12;95.88;;;30.58;;
68432;SDS011;55412;51.350;17.056;2024-01-11T00:41:38;139.70;;;46.13;;
68432;SDS011;55412;51.350;17.056;2024-01-11T00:44:04;121.17;;;40.87;;
68432;SDS011;55412;51.350;17.056;2024-01-11T00:46:29;144.50;;;46.40;;
68432;SDS011;55412;51.350;17.056;2024-01-11T00:48:55;113.80;;;39.93;;
68432;SDS011;55412;51.350;17.056;2024-01-11T00:51:21;125.07;;;41.30;;
68432;SDS011;55412;51.350;17.056;2024-01-11T00:53:46;100.60;;;39.10;;
68432;SDS011;55412;51.350;17.056;2024-01-11T00:56:18;102.45;;;36.38;;
68432;SDS011;55412;51.350;17.056;2024-01-11T00:58:45;141.40;;;46.43;;
68432;SDS011;55412;51.350;17.056;2024-01-11T01:01:11;161.80;;;51.22;;
68432;SDS011;55412;51.350;17.056;2024-01-11T01:03:37;126.72;;;45.30;;
68432;SDS011;55412;51.350;17.056;2024-01-11T01:06:03;116.53;;;42.40;;
68432;SDS011;55412;51.350;17.056;2024-01-11T01:08:30;108.68;;;40.08;;
68432;SDS011;55412;51.350;17.056;2024-01-11T01:10:55;116.83;;;41.17;;
68432;SDS011;55412;51.350;17.056;2024-01-11T01:13:21;97.25;;;33.13;;
68432;SDS011;55412;51.350;17.056;2024-01-11T01:15:47;94.43;;;40.13;;
68432;SDS011;55412;51.350;17.056;2024-01-11T01:18:12;103.40;;;36.67;;
68432;SDS011;55412;51.350;17.056;2024-01-11T01:20:38;112.23;;;39.23;;
68432;SDS011;55412;51.350;17.056;2024-01-11T01:23:04;87.97;;;32.67;;
68432;SDS011;55412;51.350;17.056;2024-01-11T01:25:29;126.18;;;41.22;;
68432;SDS011;55412;51.350;17.056;2024-01-11T01:27:55;115.28;;;41.15;;
68432;SDS011;55412;51.350;17.056;2024-01-11T01:30:22;118.93;;;42.22;;
68432;SDS011;55412;51.350;17.056;2024-01-11T01:32:48;134.00;;;42.50;;
68432;SDS011;55412;51.350;17.056;2024-01-11T01:35:14;113.40;;;40.53;;
68432;SDS011;55412;51.350;17.056;2024-01-11T01:37:40;119.93;;;43.47;;
68432;SDS011;55412;51.350;17.056;2024-01-11T01:40:06;121.47;;;41.53;;
68432;SDS011;55412;51.350;17.056;2024-01-11T01:42:32;110.50;;;41.90;;
68432;SDS011;55412;51.350;17.056;2024-01-11T01:44:59;99.70;;;39.28;;
68432;SDS011;55412;51.350;17.056;2024-01-11T01:47:25;113.67;;;42.27;;
68432;SDS011;55412;51.350;17.056;2024-01-11T01:49:52;112.15;;;43.95;;
68432;SDS011;55412;51.350;17.056;2024-01-11T01:52:19;108.25;;;40.20;;
68432;SDS011;55412;51.350;17.056;2024-01-11T01:54:47;121.80;;;42.03;;
68432;SDS011;55412;51.350;17.056;2024-01-11T01:57:14;113.25;;;40.90;;
68432;SDS011;55412;51.350;17.056;2024-01-11T01:59:44;112.82;;;38.47;;
68432;SDS011;55412;51.350;17.056;2024-01-11T02:02:11;103.55;;;36.17;;
68432;SDS011;55412;51.350;17.056;2024-01-11T02:04:37;103.32;;;36.10;;
68432;SDS011;55412;51.350;17.056;2024-01-11T02:07:03;105.68;;;34.58;;
68432;SDS011;55412;51.350;17.056;2024-01-11T02:09:30;112.35;;;36.47;;
68432;SDS011;55412;51.350;17.056;2024-01-11T02:11:56;112.05;;;37.45;;
68432;SDS011;55412;51.350;17.056;2024-01-11T02:14:22;95.55;;;33.22;;
68432;SDS011;55412;51.350;17.056;2024-01-11T02:16:47;99.13;;;31.70;;
68432;SDS011;55412;51.350;17.056;2024-01-11T02:19:13;67.70;;;25.38;;
68432;SDS011;55412;51.350;17.056;2024-01-11T02:21:43;72.50;;;26.87;;
68432;SDS011;55412;51.350;17.056;2024-01-11T02:24:11;70.47;;;27.20;;
68432;SDS011;55412;51.350;17.056;2024-01-11T02:26:37;75.72;;;26.88;;
68432;SDS011;55412;51.350;17.056;2024-01-11T02:29:24;85.93;;;27.75;;
68432;SDS011;55412;51.350;17.056;2024-01-11T02:31:50;68.57;;;23.47;;
68432;SDS011;55412;51.350;17.056;2024-01-11T02:34:16;66.25;;;21.45;;
68432;SDS011;55412;51.350;17.056;2024-01-11T02:36:42;62.95;;;24.58;;
68432;SDS011;55412;51.350;17.056;2024-01-11T02:39:09;72.05;;;23.02;;
68432;SDS011;55412;51.350;17.056;2024-01-11T02:41:35;51.73;;;20.20;;
68432;SDS011;55412;51.350;17.056;2024-01-11T02:44:02;64.10;;;23.08;;
68432;SDS011;55412;51.350;17.056;2024-01-11T02:46:28;51.28;;;19.95;;
68432;SDS011;55412;51.350;17.056;2024-01-11T02:48:55;33.83;;;13.65;;
68432;SDS011;55412;51.350;17.056;2024-01-11T02:51:21;32.15;;;12.30;;
68432;SDS011;55412;51.350;17.056;2024-01-11T02:53:46;61.42;;;20.80;;
68432;SDS011;55412;51.350;17.056;2024-01-11T02:56:12;56.33;;;19.92;;
68432;SDS011;55412;51.350;17.056;2024-01-11T02:58:38;48.33;;;18.17;;
68432;SDS011;55412;51.350;17.056;2024-01-11T03:01:03;66.50;;;22.65;;
68432;SDS011;55412;51.350;17.056;2024-01-11T03:03:29;45.73;;;17.20;;
68432;SDS011;55412;51.350;17.056;2024-01-11T03:05:55;60.28;;;20.30;;
68432;SDS011;55412;51.350;17.056;2024-01-11T03:08:20;65.63;;;22.17;;
68432;SDS011;55412;51.350;17.056;2024-01-11T03:10:46;62.25;;;23.67;;
68432;SDS011;55412;51.350;17.056;2024-01-11T03:13:12;70.87;;;24.00;;
68432;SDS011;55412;51.350;17.056;2024-01-11T03:15:38;60.30;;;24.92;;
68432;SDS011;55412;51.350;17.056;2024-01-11T03:18:04;73.50;;;22.93;;
68432;SDS011;55412;51.350;17.056;2024-01-11T03:20:29;71.65;;;21.95;;
68432;SDS011;55412;51.350;17.056;2024-01-11T03:22:55;81.53;;;30.13;;
68432;SDS011;55412;51.350;17.056;2024-01-11T03:25:21;90.03;;;32.27;;
68432;SDS011;55412;51.350;17.056;2024-01-11T03:27:47;97.78;;;33.53;;
68432;SDS011;55412;51.350;17.056;2024-01-11T03:30:12;102.60;;;36.03;;
68432;SDS011;55412;51.350;17.056;2024-01-11T03:32:38;103.68;;;37.00;;
68432;SDS011;55412;51.350;17.056;2024-01-11T03:35:07;91.40;;;34.37;;
68432;SDS011;55412;51.350;17.056;2024-01-11T03:37:33;91.25;;;32.55;;
68432;SDS011;55412;51.350;17.056;2024-01-11T03:40:00;82.35;;;29.15;;
68432;SDS011;55412;51.350;17.056;2024-01-11T03:42:26;85.90;;;29.55;;
68432;SDS011;55412;51.350;17.056;2024-01-11T03:44:52;72.23;;;26.73;;
68432;SDS011;55412;51.350;17.056;2024-01-11T03:47:17;63.35;;;24.45;;
68432;SDS011;55412;51.350;17.056;2024-01-11T03:49:43;65.75;;;22.02;;
68432;SDS011;55412;51.350;17.056;2024-01-11T03:52:09;62.08;;;21.77;;
68432;SDS011;55412;51.350;17.056;2024-01-11T03:54:35;79.05;;;25.75;;
68432;SDS011;55412;51.350;17.056;2024-01-11T03:57:01;75.83;;;26.43;;
68432;SDS011;55412;51.350;17.056;2024-01-11T03:59:27;75.22;;;25.17;;
68432;SDS011;55412;51.350;17.056;2024-01-11T04:01:52;65.73;;;22.67;;
68432;SDS011;55412;51.350;17.056;2024-01-11T04:04:18;73.50;;;25.25;;
68432;SDS011;55412;51.350;17.056;2024-01-11T04:06:44;66.20;;;21.52;;
68432;SDS011;55412;51.350;17.056;2024-01-11T04:09:10;75.30;;;24.27;;
68432;SDS011;55412;51.350;17.056;2024-01-11T04:11:36;75.13;;;26.60;;
68432;SDS011;55412;51.350;17.056;2024-01-11T04:14:02;87.30;;;32.65;;
68432;SDS011;55412;51.350;17.056;2024-01-11T04:16:28;75.27;;;25.27;;
68432;SDS011;55412;51.350;17.056;2024-01-11T04:18:54;67.55;;;22.65;;
68432;SDS011;55412;51.350;17.056;2024-01-11T04:21:20;48.70;;;20.25;;
68432;SDS011;55412;51.350;17.056;2024-01-11T04:23:50;50.55;;;17.30;;
68432;SDS011;55412;51.350;17.056;2024-01-11T04:26:16;63.10;;;20.83;;
68432;SDS011;55412;51.350;17.056;2024-01-11T04:28:44;68.80;;;21.48;;
68432;SDS011;55412;51.350;17.056;2024-01-11T04:31:13;62.95;;;21.42;;
68432;SDS011;55412;51.350;17.056;2024-01-11T04:33:40;55.70;;;21.80;;
68432;SDS011;55412;51.350;17.056;2024-01-11T04:36:09;62.28;;;21.38;;
68432;SDS011;55412;51.350;17.056;2024-01-11T04:38:35;63.67;;;22.95;;
68432;SDS011;55412;51.350;17.056;2024-01-11T04:41:11;56.00;;;20.65;;
68432;SDS011;55412;51.350;17.056;2024-01-11T04:43:44;48.55;;;17.42;;
68432;SDS011;55412;51.350;17.056;2024-01-11T04:48:42;70.28;;;22.80;;
68432;SDS011;55412;51.350;17.056;2024-01-11T04:51:08;39.33;;;14.25;;
68432;SDS011;55412;51.350;17.056;2024-01-11T04:53:36;36.38;;;14.63;;
68432;SDS011;55412;51.350;17.056;2024-01-11T04:56:03;52.80;;;18.88;;
68432;SDS011;55412;51.350;17.056;2024-01-11T04:58:29;59.97;;;20.15;;
68432;SDS011;55412;51.350;17.056;2024-01-11T05:00:54;48.67;;;17.17;;
68432;SDS011;55412;51.350;17.056;2024-01-11T05:03:20;51.30;;;15.47;;
68432;SDS011;55412;51.350;17.056;2024-01-11T05:05:46;50.08;;;15.40;;
68432;SDS011;55412;51.350;17.056;2024-01-11T05:08:11;44.83;;;15.63;;
68432;SDS011;55412;51.350;17.056;2024-01-11T05:10:37;38.95;;;13.15;;
68432;SDS011;55412;51.350;17.056;2024-01-11T05:13:03;44.67;;;15.73;;
68432;SDS011;55412;51.350;17.056;2024-01-11T05:15:28;36.47;;;12.27;;
68432;SDS011;55412;51.350;17.056;2024-01-11T05:17:57;49.63;;;15.50;;
68432;SDS011;55412;51.350;17.056;2024-01-11T05:20:23;31.83;;;11.93;;
68432;SDS011;55412;51.350;17.056;2024-01-11T05:22:49;45.00;;;14.52;;
68432;SDS011;55412;51.350;17.056;2024-01-11T05:25:15;31.07;;;11.50;;
68432;SDS011;55412;51.350;17.056;2024-01-11T05:27:41;51.15;;;15.82;;
68432;SDS011;55412;51.350;17.056;2024-01-11T05:30:06;45.40;;;16.47;;
68432;SDS011;55412;51.350;17.056;2024-01-11T05:32:32;57.97;;;16.63;;
68432;SDS011;55412;51.350;17.056;2024-01-11T05:34:58;54.23;;;19.40;;
68432;SDS011;55412;51.350;17.056;2024-01-11T05:37:24;55.05;;;17.10;;
68432;SDS011;55412;51.350;17.056;2024-01-11T05:39:49;66.17;;;21.13;;
68432;SDS011;55412;51.350;17.056;2024-01-11T05:42:15;38.72;;;12.65;;
68432;SDS011;55412;51.350;17.056;2024-01-11T05:44:41;39.67;;;13.03;;
68432;SDS011;55412;51.350;17.056;2024-01-11T05:47:07;33.25;;;11.23;;
68432;SDS011;55412;51.350;17.056;2024-01-11T05:49:32;40.07;;;14.67;;
68432;SDS011;55412;51.350;17.056;2024-01-11T05:51:58;31.38;;;10.80;;
68432;SDS011;55412;51.350;17.056;2024-01-11T05:54:24;43.40;;;14.60;;
68432;SDS011;55412;51.350;17.056;2024-01-11T05:56:51;50.28;;;17.25;;
68432;SDS011;55412;51.350;17.056;2024-01-11T05:59:21;45.58;;;16.13;;
68432;SDS011;55412;51.350;17.056;2024-01-11T06:01:47;43.63;;;16.63;;
68432;SDS011;55412;51.350;17.056;2024-01-11T06:04:12;56.88;;;18.75;;
68432;SDS011;55412;51.350;17.056;2024-01-11T06:06:39;51.87;;;18.47;;
68432;SDS011;55412;51.350;17.056;2024-01-11T06:09:05;61.38;;;20.83;;
68432;SDS011;55412;51.350;17.056;2024-01-11T06:11:31;61.50;;;19.23;;
68432;SDS011;55412;51.350;17.056;2024-01-11T06:13:57;63.92;;;19.45;;
68432;SDS011;55412;51.350;17.056;2024-01-11T06:16:22;59.50;;;20.70;;
68432;SDS011;55412;51.350;17.056;2024-01-11T06:18:48;54.38;;;19.35;;
68432;SDS011;55412;51.350;17.056;2024-01-11T06:21:15;56.17;;;19.10;;
68432;SDS011;55412;51.350;17.056;2024-01-11T06:23:43;56.70;;;19.53;;
68432;SDS011;55412;51.350;17.056;2024-01-11T06:26:09;48.50;;;17.65;;
68432;SDS011;55412;51.350;17.056;2024-01-11T06:28:34;52.17;;;16.30;;
68432;SDS011;55412;51.350;17.056;2024-01-11T06:31:00;54.43;;;17.43;;
68432;SDS011;55412;51.350;17.056;2024-01-11T06:33:26;40.38;;;12.20;;
68432;SDS011;55412;51.350;17.056;2024-01-11T06:35:52;32.40;;;10.93;;
68432;SDS011;55412;51.350;17.056;2024-01-11T06:38:18;57.70;;;16.63;;
68432;SDS011;55412;51.350;17.056;2024-01-11T06:40:43;45.70;;;17.03;;
68432;SDS011;55412;51.350;17.056;2024-01-11T06:43:09;49.97;;;16.08;;
68432;SDS011;55412;51.350;17.056;2024-01-11T06:45:35;38.93;;;13.83;;
68432;SDS011;55412;51.350;17.056;2024-01-11T06:48:00;43.38;;;16.08;;
68432;SDS011;55412;51.350;17.056;2024-01-11T06:50:26;34.92;;;13.25;;
68432;SDS011;55412;51.350;17.056;2024-01-11T06:52:52;35.22;;;11.57;;
68432;SDS011;55412;51.350;17.056;2024-01-11T06:55:17;47.33;;;15.57;;
68432;SDS011;55412;51.350;17.056;2024-01-11T06:57:46;45.00;;;15.10;;
68432;SDS011;55412;51.350;17.056;2024-01-11T07:00:13;36.50;;;12.23;;
68432;SDS011;55412;51.350;17.056;2024-01-11T07:02:39;22.92;;;7.82;;
68432;SDS011;55412;51.350;17.056;2024-01-11T07:05:07;40.67;;;13.15;;
68432;SDS011;55412;51.350;17.056;2024-01-11T07:07:33;28.93;;;10.03;;
68432;SDS011;55412;51.350;17.056;2024-01-11T07:09:59;23.63;;;8.48;;
68432;SDS011;55412;51.350;17.056;2024-01-11T07:12:24;39.27;;;14.87;;
68432;SDS011;55412;51.350;17.056;2024-01-11T07:14:51;36.17;;;14.95;;
68432;SDS011;55412;51.350;17.056;2024-01-11T07:17:16;48.83;;;16.45;;
68432;SDS011;55412;51.350;17.056;2024-01-11T07:19:42;28.67;;;9.57;;
68432;SDS011;55412;51.350;17.056;2024-01-11T07:22:08;35.00;;;12.73;;
68432;SDS011;55412;51.350;17.056;2024-01-11T07:24:34;38.25;;;12.63;;
68432;SDS011;55412;51.350;17.056;2024-01-11T07:27:05;36.43;;;11.90;;
68432;SDS011;55412;51.350;17.056;2024-01-11T07:29:35;37.08;;;12.07;;
68432;SDS011;55412;51.350;17.056;2024-01-11T07:32:01;20.20;;;7.00;;
68432;SDS011;55412;51.350;17.056;2024-01-11T07:34:28;38.88;;;14.07;;
68432;SDS011;55412;51.350;17.056;2024-01-11T07:36:54;41.13;;;13.97;;
68432;SDS011;55412;51.350;17.056;2024-01-11T07:39:21;27.52;;;10.18;;
68432;SDS011;55412;51.350;17.056;2024-01-11T07:41:47;53.90;;;15.57;;
68432;SDS011;55412;51.350;17.056;2024-01-11T07:44:13;32.85;;;12.10;;
68432;SDS011;55412;51.350;17.056;2024-01-11T07:46:39;35.13;;;12.47;;
68432;SDS011;55412;51.350;17.056;2024-01-11T07:49:05;27.00;;;9.65;;
68432;SDS011;55412;51.350;17.056;2024-01-11T07:51:31;30.40;;;10.43;;
68432;SDS011;55412;51.350;17.056;2024-01-11T07:53:59;34.83;;;11.25;;
68432;SDS011;55412;51.350;17.056;2024-01-11T07:56:25;23.65;;;8.00;;
68432;SDS011;55412;51.350;17.056;2024-01-11T07:58:51;18.83;;;6.82;;
68432;SDS011;55412;51.350;17.056;2024-01-11T08:01:17;42.53;;;14.20;;
68432;SDS011;55412;51.350;17.056;2024-01-11T08:03:42;36.97;;;13.02;;
68432;SDS011;55412;51.350;17.056;2024-01-11T08:06:10;38.95;;;13.15;;
68432;SDS011;55412;51.350;17.056;2024-01-11T08:08:39;34.63;;;11.73;;
68432;SDS011;55412;51.350;17.056;2024-01-11T08:11:08;30.00;;;10.45;;
68432;SDS011;55412;51.350;17.056;2024-01-11T08:13:33;33.90;;;10.50;;
68432;SDS011;55412;51.350;17.056;2024-01-11T08:16:03;35.85;;;12.18;;
68432;SDS011;55412;51.350;17.056;2024-01-11T08:18:33;30.48;;;11.07;;
68432;SDS011;55412;51.350;17.056;2024-01-11T08:20:58;41.13;;;14.77;;
68432;SDS011;55412;51.350;17.056;2024-01-11T08:23:24;40.95;;;15.02;;
68432;SDS011;55412;51.350;17.056;2024-01-11T08:25:50;31.47;;;11.33;;
68432;SDS011;55412;51.350;17.056;2024-01-11T08:28:17;36.50;;;10.77;;
68432;SDS011;55412;51.350;17.056;2024-01-11T08:30:44;44.63;;;12.00;;
68432;SDS011;55412;51.350;17.056;2024-01-11T08:33:09;28.17;;;8.70;;
68432;SDS011;55412;51.350;17.056;2024-01-11T08:35:35;29.67;;;10.10;;
68432;SDS011;55412;51.350;17.056;2024-01-11T08:38:01;33.55;;;13.43;;
68432;SDS011;55412;51.350;17.056;2024-01-11T08:40:28;24.17;;;8.43;;
68432;SDS011;55412;51.350;17.056;2024-01-11T08:42:54;29.03;;;10.43;;
68432;SDS011;55412;51.350;17.056;2024-01-11T08:45:19;29.33;;;11.93;;
68432;SDS011;55412;51.350;17.056;2024-01-11T08:47:47;36.83;;;11.95;;
68432;SDS011;55412;51.350;17.056;2024-01-11T08:50:13;27.87;;;11.23;;
68432;SDS011;55412;51.350;17.056;2024-01-11T08:52:39;27.95;;;10.35;;
68432;SDS011;55412;51.350;17.056;2024-01-11T08:55:06;43.25;;;12.93;;
68432;SDS011;55412;51.350;17.056;2024-01-11T08:57:32;47.50;;;14.98;;
68432;SDS011;55412;51.350;17.056;2024-01-11T09:00:01;35.22;;;11.88;;
68432;SDS011;55412;51.350;17.056;2024-01-11T09:02:27;27.77;;;10.10;;
68432;SDS011;55412;51.350;17.056;2024-01-11T09:04:53;43.10;;;12.77;;
68432;SDS011;55412;51.350;17.056;2024-01-11T09:07:18;30.83;;;9.90;;
68432;SDS011;55412;51.350;17.056;2024-01-11T09:09:44;33.63;;;11.02;;
68432;SDS011;55412;51.350;17.056;2024-01-11T09:12:10;40.88;;;14.23;;
68432;SDS011;55412;51.350;17.056;2024-01-11T09:14:36;31.40;;;9.63;;
68432;SDS011;55412;51.350;17.056;2024-01-11T09:17:02;28.25;;;9.70;;
68432;SDS011;55412;51.350;17.056;2024-01-11T09:19:31;41.45;;;13.95;;
68432;SDS011;55412;51.350;17.056;2024-01-11T09:21:59;27.03;;;9.90;;
68432;SDS011;55412;51.350;17.056;2024-01-11T09:24:25;39.33;;;11.43;;
68432;SDS011;55412;51.350;17.056;2024-01-11T09:26:51;19.75;;;5.85;;
68432;SDS011;55412;51.350;17.056;2024-01-11T09:29:16;27.87;;;8.37;;
68432;SDS011;55412;51.350;17.056;2024-01-11T09:31:42;25.33;;;9.13;;
68432;SDS011;55412;51.350;17.056;2024-01-11T09:34:08;35.00;;;10.98;;
68432;SDS011;55412;51.350;17.056;2024-01-11T09:36:33;31.60;;;10.90;;
68432;SDS011;55412;51.350;17.056;2024-01-11T09:38:59;24.30;;;6.82;;
68432;SDS011;55412;51.350;17.056;2024-01-11T09:41:25;33.95;;;10.23;;
68432;SDS011;55412;51.350;17.056;2024-01-11T09:43:53;27.55;;;8.88;;
68432;SDS011;55412;51.350;17.056;2024-01-11T09:46:19;29.38;;;9.45;;
68432;SDS011;55412;51.350;17.056;2024-01-11T09:48:46;22.83;;;7.80;;
68432;SDS011;55412;51.350;17.056;2024-01-11T09:51:13;28.33;;;8.57;;
68432;SDS011;55412;51.350;17.056;2024-01-11T09:53:39;27.92;;;10.70;;
68432;SDS011;55412;51.350;17.056;2024-01-11T09:56:07;33.07;;;9.63;;
68432;SDS011;55412;51.350;17.056;2024-01-11T09:58:34;22.95;;;8.68;;
68432;SDS011;55412;51.350;17.056;2024-01-11T10:01:05;39.72;;;12.27;;
68432;SDS011;55412;51.350;17.056;2024-01-11T10:03:34;22.17;;;8.05;;
68432;SDS011;55412;51.350;17.056;2024-01-11T10:06:00;32.37;;;10.90;;
68432;SDS011;55412;51.350;17.056;2024-01-11T10:08:27;33.47;;;10.68;;
68432;SDS011;55412;51.350;17.056;2024-01-11T10:10:54;27.67;;;9.35;;
68432;SDS011;55412;51.350;17.056;2024-01-11T10:13:25;33.20;;;9.77;;
68432;SDS011;55412;51.350;17.056;2024-01-11T10:15:53;36.43;;;10.83;;
68432;SDS011;55412;51.350;17.056;2024-01-11T10:18:30;26.45;;;9.77;;
68432;SDS011;55412;51.350;17.056;2024-01-11T10:20:56;27.08;;;9.73;;
68432;SDS011;55412;51.350;17.056;2024-01-11T10:23:22;24.92;;;9.65;;
68432;SDS011;55412;51.350;17.056;2024-01-11T10:25:48;24.40;;;8.02;;
68432;SDS011;55412;51.350;17.056;2024-01-11T10:28:15;30.45;;;11.27;;
68432;SDS011;55412;51.350;17.056;2024-01-11T10:30:41;29.23;;;9.70;;
68432;SDS011;55412;51.350;17.056;2024-01-11T10:33:11;32.70;;;10.60;;
68432;SDS011;55412;51.350;17.056;2024-01-11T10:35:37;26.10;;;10.23;;
68432;SDS011;55412;51.350;17.056;2024-01-11T10:38:04;40.72;;;11.07;;
68432;SDS011;55412;51.350;17.056;2024-01-11T10:40:35;32.95;;;11.73;;
68432;SDS011;55412;51.350;17.056;2024-01-11T10:43:00;29.00;;;10.70;;
68432;SDS011;55412;51.350;17.056;2024-01-11T10:45:27;31.15;;;10.40;;
68432;SDS011;55412;51.350;17.056;2024-01-11T10:47:55;22.38;;;8.23;;
68432;SDS011;55412;51.350;17.056;2024-01-11T10:50:26;35.45;;;12.05;;
68432;SDS011;55412;51.350;17.056;2024-01-11T10:53:03;26.67;;;9.80;;
68432;SDS011;55412;51.350;17.056;2024-01-11T10:55:34;34.92;;;11.23;;
68432;SDS011;55412;51.350;17.056;2024-01-11T10:58:00;34.83;;;12.13;;
68432;SDS011;55412;51.350;17.056;2024-01-11T11:00:28;40.33;;;11.80;;
68432;SDS011;55412;51.350;17.056;2024-01-11T11:02:54;30.55;;;10.82;;
68432;SDS011;55412;51.350;17.056;2024-01-11T11:05:21;27.50;;;9.75;;
68432;SDS011;55412;51.350;17.056;2024-01-11T11:07:49;26.70;;;8.98;;
68432;SDS011;55412;51.350;17.056;2024-01-11T11:10:15;41.75;;;11.52;;
68432;SDS011;55412;51.350;17.056;2024-01-11T11:12:44;30.80;;;10.38;;
68432;SDS011;55412;51.350;17.056;2024-01-11T11:15:12;34.40;;;10.23;;
68432;SDS011;55412;51.350;17.056;2024-01-11T11:17:39;31.08;;;8.95;;
68432;SDS011;55412;51.350;17.056;2024-01-11T11:20:09;31.73;;;8.57;;
68432;SDS011;55412;51.350;17.056;2024-01-11T11:22:42;24.08;;;7.65;;
68432;SDS011;55412;51.350;17.056;2024-01-11T11:25:11;39.00;;;11.05;;
68432;SDS011;55412;51.350;17.056;2024-01-11T11:27:50;36.35;;;11.65;;
68432;SDS011;55412;51.350;17.056;2024-01-11T11:30:18;31.93;;;8.70;;
68432;SDS011;55412;51.350;17.056;2024-01-11T11:32:45;38.95;;;10.35;;
68432;SDS011;55412;51.350;17.056;2024-01-11T11:35:11;25.52;;;8.50;;
68432;SDS011;55412;51.350;17.056;2024-01-11T11:37:37;35.50;;;11.13;;
68432;SDS011;55412;51.350;17.056;2024-01-11T11:40:12;31.92;;;10.88;;
68432;SDS011;55412;51.350;17.056;2024-01-11T11:42:39;31.77;;;9.43;;
68432;SDS011;55412;51.350;17.056;2024-01-11T11:45:05;33.65;;;11.75;;
68432;SDS011;55412;51.350;17.056;2024-01-11T11:47:36;44.55;;;11.80;;
68432;SDS011;55412;51.350;17.056;2024-01-11T11:52:39;42.63;;;15.38;;
68432;SDS011;55412;51.350;17.056;2024-01-11T11:55:08;40.00;;;15.13;;
68432;SDS011;55412;51.350;17.056;2024-01-11T11:57:35;37.20;;;14.20;;
68432;SDS011;55412;51.350;17.056;2024-01-11T12:00:01;35.97;;;12.98;;
68432;SDS011;55412;51.350;17.056;2024-01-11T12:02:56;27.38;;;11.68;;
68432;SDS011;55412;51.350;17.056;2024-01-11T12:05:22;39.35;;;13.63;;
68432;SDS011;55412;51.350;17.056;2024-01-11T12:07:48;35.63;;;12.55;;
68432;SDS011;55412;51.350;17.056;2024-01-11T12:10:14;39.47;;;13.35;;
68432;SDS011;55412;51.350;17.056;2024-01-11T12:12:40;31.05;;;9.85;;
68432;SDS011;55412;51.350;17.056;2024-01-11T12:15:05;26.33;;;9.03;;
68432;SDS011;55412;51.350;17.056;2024-01-11T12:17:32;27.42;;;10.02;;
68432;SDS011;55412;51.350;17.056;2024-01-11T12:19:58;32.20;;;9.55;;
68432;SDS011;55412;51.350;17.056;2024-01-11T12:22:24;32.83;;;11.77;;
68432;SDS011;55412;51.350;17.056;2024-01-11T12:24:49;33.33;;;11.88;;
68432;SDS011;55412;51.350;17.056;2024-01-11T12:27:16;35.92;;;13.40;;
68432;SDS011;55412;51.350;17.056;2024-01-11T12:29:42;26.85;;;10.70;;
68432;SDS011;55412;51.350;17.056;2024-01-11T12:32:08;31.75;;;12.23;;
68432;SDS011;55412;51.350;17.056;2024-01-11T12:34:36;29.98;;;10.80;;
68432;SDS011;55412;51.350;17.056;2024-01-11T12:37:04;39.15;;;12.75;;
68432;SDS011;55412;51.350;17.056;2024-01-11T12:39:30;42.72;;;14.10;;
68432;SDS011;55412;51.350;17.056;2024-01-11T12:41:56;29.67;;;9.88;;
68432;SDS011;55412;51.350;17.056;2024-01-11T12:44:23;28.02;;;9.77;;
68432;SDS011;55412;51.350;17.056;2024-01-11T12:46:49;26.63;;;10.65;;
68432;SDS011;55412;51.350;17.056;2024-01-11T12:49:16;24.83;;;9.20;;
68432;SDS011;55412;51.350;17.056;2024-01-11T12:51:42;32.88;;;12.00;;
68432;SDS011;55412;51.350;17.056;2024-01-11T12:54:11;33.33;;;11.60;;
68432;SDS011;55412;51.350;17.056;2024-01-11T12:56:44;31.08;;;10.38;;
68432;SDS011;55412;51.350;17.056;2024-01-11T12:59:10;29.90;;;10.63;;
68432;SDS011;55412;51.350;17.056;2024-01-11T13:01:37;19.40;;;8.05;;
68432;SDS011;55412;51.350;17.056;2024-01-11T13:04:04;23.03;;;8.97;;
68432;SDS011;55412;51.350;17.056;2024-01-11T13:06:30;32.58;;;11.13;;
68432;SDS011;55412;51.350;17.056;2024-01-11T13:08:57;34.42;;;12.02;;
68432;SDS011;55412;51.350;17.056;2024-01-11T13:11:23;28.80;;;9.70;;
68432;SDS011;55412;51.350;17.056;2024-01-11T13:13:52;27.25;;;9.23;;
68432;SDS011;55412;51.350;17.056;2024-01-11T13:16:18;22.60;;;8.67;;
68432;SDS011;55412;51.350;17.056;2024-01-11T13:18:45;34.38;;;10.20;;
68432;SDS011;55412;51.350;17.056;2024-01-11T13:21:11;25.25;;;8.88;;
68432;SDS011;55412;51.350;17.056;2024-01-11T13:23:39;21.45;;;9.15;;
68432;SDS011;55412;51.350;17.056;2024-01-11T13:26:05;22.92;;;9.02;;
68432;SDS011;55412;51.350;17.056;2024-01-11T13:28:32;29.48;;;7.32;;
68432;SDS011;55412;51.350;17.056;2024-01-11T13:30:58;28.70;;;8.90;;
68432;SDS011;55412;51.350;17.056;2024-01-11T13:33:25;18.23;;;6.88;;
68432;SDS011;55412;51.350;17.056;2024-01-11T13:35:51;24.57;;;8.67;;
68432;SDS011;55412;51.350;17.056;2024-01-11T13:38:17;20.35;;;6.90;;
68432;SDS011;55412;51.350;17.056;2024-01-11T13:40:43;15.68;;;6.15;;
68432;SDS011;55412;51.350;17.056;2024-01-11T13:43:09;16.83;;;6.43;;
68432;SDS011;55412;51.350;17.056;2024-01-11T13:45:35;20.27;;;6.57;;
68432;SDS011;55412;51.350;17.056;2024-01-11T13:48:02;10.80;;;4.20;;
68432;SDS011;55412;51.350;17.056;2024-01-11T13:50:28;10.27;;;3.42;;
68432;SDS011;55412;51.350;17.056;2024-01-11T13:52:54;19.35;;;4.68;;
68432;SDS011;55412;51.350;17.056;2024-01-11T13:55:20;14.57;;;5.23;;
68432;SDS011;55412;51.350;17.056;2024-01-11T13:57:46;15.57;;;5.18;;
68432;SDS011;55412;51.350;17.056;2024-01-11T14:00:13;16.20;;;6.18;;
68432;SDS011;55412;51.350;17.056;2024-01-11T14:02:39;18.67;;;7.25;;
68432;SDS011;55412;51.350;17.056;2024-01-11T14:05:06;15.00;;;6.18;;
68432;SDS011;55412;51.350;17.056;2024-01-11T14:07:36;20.65;;;7.97;;
68432;SDS011;55412;51.350;17.056;2024-01-11T14:10:03;14.88;;;4.85;;